METAR AND TAF INFORMATION
METAR FOR KBAD
ADDS - METARS form results

(1450 UTC 21 February 2018)
Data provider http://aviationweather.gov/adds/metars/
 
METAR text: KBAD 201456Z AUTO 18010KT 10SM CLR 22/19 A3007 RMK AO2 SLP184 T02150185 52020 $
Conditions at: KBAD (BARKSDALE AFB , LA, US) observed 1456 UTC 21 February 2018
Temperature: 21.5°C (71°F)
Dewpoint: 18.5°C (65°F) [RH = 83%]
Pressure (altimeter): 30.07 inches Hg (1018.4 mb)
[Sea-level pressure: 1018.4 mb]
Winds: from the S (180 degrees) at 12 MPH (10 knots; 5.2 m/s)
Visibility: 10 or more miles (16+ km)
Ceiling: at least 12,000 feet AGL
Clouds: sky clear below 12,000 feet AGL
Weather:
SOME DATA ABOVE MAY BE INACCURATE!!!
"$" is an indication the sensor requires maintenance

METAR text: KBAD 211438Z 36014G22KT 3/8SM +TSRA FG OVC006 14/14 A3017 RMK AO2A TSB41 SLP219 $
Conditions at: KBAD (BARKSDALE AFB , LA, US) observed 1438 UTC 21 February 2018
Temperature: 14.0°C (57°F)
Dewpoint: 14.0°C (57°F) [RH = 100%]
Pressure (altimeter): 30.17 inches Hg (1021.8 mb)
[Sea-level pressure: 1021.9 mb]
Winds: from the N (360 degrees) at 16 MPH (14 knots; 7.3 m/s)
gusting to 25 MPH (22 knots; 11.4 m/s)
Visibility: 0.38 miles (0.61 km)
Ceiling: 600 feet AGL
Clouds: overcast cloud deck at 600 feet AGL
Weather: +TSRA FG  (heavy rain associated with thunderstorm(s), fog)
SOME DATA ABOVE MAY BE INACCURATE!!!
"$" is an indication the sensor requires maintenance

METAR text: KBAD 211433Z 36018G25KT 1SM +TSRA BR OVC005 14/14 A3016 RMK AO2A TSB41 SLP215 RVRNO $
Conditions at: KBAD (BARKSDALE AFB , LA, US) observed 1433 UTC 21 February 2018
Temperature: 14.0°C (57°F)
Dewpoint: 14.0°C (57°F) [RH = 100%]
Pressure (altimeter): 30.16 inches Hg (1021.4 mb)
[Sea-level pressure: 1021.5 mb]
Winds: from the N (360 degrees) at 21 MPH (18 knots; 9.4 m/s)
gusting to 29 MPH (25 knots; 13.0 m/s)
Visibility: 1.00 miles (1.61 km)
Ceiling: 500 feet AGL
Clouds: overcast cloud deck at 500 feet AGL
Weather: +TSRA BR  (heavy rain associated with thunderstorm(s), mist)
SOME DATA ABOVE MAY BE INACCURATE!!!
"$" is an indication the sensor requires maintenance

METAR text: KBAD 211423Z 36018G22KT 2SM +TSRA BR OVC005 14/14 A3016 RMK AO2A TSB41 SLP215 $
Conditions at: KBAD (BARKSDALE AFB , LA, US) observed 1423 UTC 21 February 2018
Temperature: 14.0°C (57°F)
Dewpoint: 14.0°C (57°F) [RH = 100%]
Pressure (altimeter): 30.16 inches Hg (1021.4 mb)
[Sea-level pressure: 1021.5 mb]
Winds: from the N (360 degrees) at 21 MPH (18 knots; 9.4 m/s)
gusting to 25 MPH (22 knots; 11.4 m/s)
Visibility: 2.00 miles (3.22 km)
Ceiling: 500 feet AGL
Clouds: overcast cloud deck at 500 feet AGL
Weather: +TSRA BR  (heavy rain associated with thunderstorm(s), mist)
SOME DATA ABOVE MAY BE INACCURATE!!!
"$" is an indication the sensor requires maintenance

METAR text: KBAD 211418Z 36016G22KT 2SM +TSRA BR OVC004 15/15 A3016 RMK AO2A TSB41 SLP215 $
Conditions at: KBAD (BARKSDALE AFB , LA, US) observed 1418 UTC 21 February 2018
Temperature: 15.0°C (59°F)
Dewpoint: 15.0°C (59°F) [RH = 100%]
Pressure (altimeter): 30.16 inches Hg (1021.4 mb)
[Sea-level pressure: 1021.5 mb]
Winds: from the N (360 degrees) at 18 MPH (16 knots; 8.3 m/s)
gusting to 25 MPH (22 knots; 11.4 m/s)
Visibility: 2.00 miles (3.22 km)
Ceiling: 400 feet AGL
Clouds: overcast cloud deck at 400 feet AGL
Weather: +TSRA BR  (heavy rain associated with thunderstorm(s), mist)
SOME DATA ABOVE MAY BE INACCURATE!!!
"$" is an indication the sensor requires maintenance

METAR text: KBAD 211408Z 34014KT 1SM +TSRA BR OVC006 15/15 A3017 RMK AO2A LTG DSNT E TSB41 PRESRR SLP219 RVRNO $
Conditions at: KBAD (BARKSDALE AFB , LA, US) observed 1408 UTC 21 February 2018
Temperature: 15.0°C (59°F)
Dewpoint: 15.0°C (59°F) [RH = 100%]
Pressure (altimeter): 30.17 inches Hg (1021.8 mb)
[Sea-level pressure: 1021.9 mb]
Winds: from the NNW (340 degrees) at 16 MPH (14 knots; 7.3 m/s)
Visibility: 1.00 miles (1.61 km)
Ceiling: 600 feet AGL
Clouds: overcast cloud deck at 600 feet AGL
Weather: +TSRA BR  (heavy rain associated with thunderstorm(s), mist)
SOME DATA ABOVE MAY BE INACCURATE!!!
"$" is an indication the sensor requires maintenance

METAR text: KBAD 211402Z 35014KT 1SM R15/5500FT +TSRA BR OVC006 15/15 A3015 RMK AO2A TSB41 PRESFR SLP212 $
Conditions at: KBAD (BARKSDALE AFB , LA, US) observed 1402 UTC 21 February 2018
Temperature: 15.0°C (59°F)
Dewpoint: 15.0°C (59°F) [RH = 100%]
Pressure (altimeter): 30.15 inches Hg (1021.1 mb)
[Sea-level pressure: 1021.2 mb]
Winds: from the N (350 degrees) at 16 MPH (14 knots; 7.3 m/s)
Visibility: 1.00 miles (1.61 km)
Ceiling: 600 feet AGL
Clouds: overcast cloud deck at 600 feet AGL
Weather: +TSRA BR  (heavy rain associated with thunderstorm(s), mist)
SOME DATA ABOVE MAY BE INACCURATE!!!
"$" is an indication the sensor requires maintenance

METAR text: KBAD 211356Z 32013KT 1SM +TSRA BR OVC007 15/15 A3017 RMK AO2A RAB02 TSB41 SLP219 P0037 T01540152 RVRNO $
Conditions at: KBAD (BARKSDALE AFB , LA, US) observed 1356 UTC 21 February 2018
Temperature: 15.4°C (60°F)
Dewpoint: 15.2°C (59°F) [RH = 99%]
Pressure (altimeter): 30.17 inches Hg (1021.8 mb)
[Sea-level pressure: 1021.9 mb]
Winds: from the NW (320 degrees) at 15 MPH (13 knots; 6.8 m/s)
Visibility: 1.00 miles (1.61 km)
Ceiling: 700 feet AGL
Clouds: overcast cloud deck at 700 feet AGL
Weather: +TSRA BR  (heavy rain associated with thunderstorm(s), mist)
SOME DATA ABOVE MAY BE INACCURATE!!!
"$" is an indication the sensor requires maintenance

METAR text: KBAD 211354Z 31012KT 1SM +TSRA BR SCT007 16/15 A3017 RMK A02A RAB02 TSB41 SLP219 RVRNO $
Conditions at: KBAD (BARKSDALE AFB , LA, US) observed 1354 UTC 21 February 2018
Temperature: 16.0°C (61°F)
Dewpoint: 15.0°C (59°F) [RH = 94%]
Pressure (altimeter): 30.17 inches Hg (1021.8 mb)
[Sea-level pressure: 1021.9 mb]
Winds: from the NW (310 degrees) at 14 MPH (12 knots; 6.2 m/s)
Visibility: 1.00 miles (1.61 km)
Ceiling: at least 12,000 feet AGL
Clouds: scattered clouds at 700 feet AGL
Weather: +TSRA BR  (heavy rain associated with thunderstorm(s), mist)
SOME DATA ABOVE MAY BE INACCURATE!!!
"$" is an indication the sensor requires maintenance

METAR text: KBAD 211352Z AUTO 34009KT 1 5/8SM +TSRA BR BKN007 BKN012 16/15 A3017 RMK AO2 VIS 1 5/8V6 RAB02 TSB41 SLP219 $
Conditions at: KBAD (BARKSDALE AFB , LA, US) observed 1352 UTC 21 February 2018
Temperature: 16.0°C (61°F)
Dewpoint: 15.0°C (59°F) [RH = 94%]
Pressure (altimeter): 30.17 inches Hg (1021.8 mb)
[Sea-level pressure: 1021.9 mb]
Winds: from the NNW (340 degrees) at 10 MPH (9 knots; 4.7 m/s)
Visibility: 1.63 miles (2.62 km)
Ceiling: 700 feet AGL
Clouds: broken clouds at 700 feet AGL
broken clouds at 1200 feet AGL
Weather: +TSRA BR  (heavy rain associated with thunderstorm(s), mist)
SOME DATA ABOVE MAY BE INACCURATE!!!
"$" is an indication the sensor requires maintenance

Forecast for: KBAD (BARKSDALE AFB , LA, US)
Text: TAF AMD KBAD 211330Z 2113/2216 04006KT 8000 -SHRA OVC008 510102 QNH3002INS
Forecast period: 1300 to 1700 UTC 21 February 2018
Forecast type: FROM: standard forecast or significant change
Winds: from the NE (40 degrees) at 7 MPH (6 knots; 3.1 m/s)
Visibility: 5 miles (8 km)
Ceiling: 800 feet AGL
Clouds: overcast cloud deck at 800 feet AGL
Turbulence: Light turbulence expected at 1000 feet (304m) AGL extending to 3000 feet (914m) AGL
Weather: -SHRA  (light rain showers)
Text: TEMPO 2113/2117 04010G15KT 6000 -TSRA OVC005CB
Forecast period: 1300 to 1700 UTC 21 February 2018
Forecast type: TEMPORARY: The following changes expected for less than half the time period
Winds: from the NE (40 degrees) at 12 MPH (10 knots; 5.2 m/s)
gusting to 17 MPH (15 knots; 7.8 m/s)
Visibility: 4 miles (6 km)
Ceiling: 500 feet AGL
Clouds: overcast cloud deck at 500 feet AGL
Weather: -TSRA  (light rain associated with thunderstorm(s))
Text: BECMG 2117/2118 10012G20KT 6000 SHRA OVC004 510051 520251 QNH3004INS
Forecast period: 1700 to 2100 UTC 21 February 2018
Forecast type: BECOMING: Conditions expected to become as follows by 1800 UTC 21 February 2018
Winds: from the E (100 degrees) at 14 MPH (12 knots; 6.2 m/s)
gusting to 23 MPH (20 knots; 10.4 m/s)
Visibility: 4 miles (6 km)
Ceiling: 400 feet AGL
Clouds: overcast cloud deck at 400 feet AGL
Turbulence: Occasional moderate turbulence in clear air expected at 2500 feet (762m) AGL extending to 3500 feet (1066m) AGL
Turbulence: Light turbulence expected at 500 feet (152m) AGL extending to 1500 feet (457m) AGL
Weather: SHRA  (rain showers)
Text: TEMPO 2118/2121 08015G30KT 3200 TSRA OVC003CB
Forecast period: 1800 to 2100 UTC 21 February 2018
Forecast type: TEMPORARY: The following changes expected for less than half the time period
Winds: from the E (80 degrees) at 17 MPH (15 knots; 7.8 m/s)
gusting to 34 MPH (30 knots; 15.6 m/s)
Visibility: 1.99 miles (3.20 km)
Ceiling: 300 feet AGL
Clouds: overcast cloud deck at 300 feet AGL
Weather: TSRA  (rain associated with thunderstorm(s))
Text: BECMG 2121/2122 08012KT 8000 -SHRA OVC005 510051 520253 QNH3017INS
Forecast period: 2100 UTC 21 February 2018 to 0400 UTC 22 February 2018
Forecast type: BECOMING: Conditions expected to become as follows by 2200 UTC 21 February 2018
Winds: from the E (80 degrees) at 14 MPH (12 knots; 6.2 m/s)
Visibility: 5 miles (8 km)
Ceiling: 500 feet AGL
Clouds: overcast cloud deck at 500 feet AGL
Turbulence: Occasional moderate turbulence in clear air expected at 2500 feet (762m) AGL extending to 5500 feet (1676m) AGL
Turbulence: Light turbulence expected at 500 feet (152m) AGL extending to 1500 feet (457m) AGL
Weather: -SHRA  (light rain showers)
Text: BECMG 2204/2205 06006KT 9999 NSW OVC006 510102 QNH3022INS
Forecast period: 0400 to 0900 UTC 22 February 2018
Forecast type: BECOMING: Conditions expected to become as follows by 0500 UTC 22 February 2018
Winds: from the ENE (60 degrees) at 7 MPH (6 knots; 3.1 m/s)
Visibility: 6 or more miles (10+ km)
Ceiling: 600 feet AGL
Clouds: overcast cloud deck at 600 feet AGL
Turbulence: Light turbulence expected at 1000 feet (304m) AGL extending to 3000 feet (914m) AGL
Weather: NSW  (no significant weather)
Text: BECMG 2209/2210 02006KT 9000 -SHRA OVC006 510102 QNH3022INS TX20/2115Z TN14/2121Z
Forecast period: 0900 to 1600 UTC 22 February 2018
Forecast type: BECOMING: Conditions expected to become as follows by 1000 UTC 22 February 2018
Winds: from the NNE (20 degrees) at 7 MPH (6 knots; 3.1 m/s)
Visibility: 6 miles (9 km)
Ceiling: 600 feet AGL
Clouds: overcast cloud deck at 600 feet AGL
Turbulence: Light turbulence expected at 1000 feet (304m) AGL extending to 3000 feet (914m) AGL
Weather: -SHRA  (light rain showers)

 AIRPORT MAP

 RUNWAY INFORMATION
Runway 15 Runway length 11756 ft Runway width 300 ft
Runway elevation 164 ft Runway displaced threshold 0 ft Runway heading 151
Runway 33 Runway length 11756 ft Runway width 300 ft
Runway elevation 162 ft Runway displaced threshold 0 ft Runway heading 331

 AIRPORT FREQUENCIES
Type A/D Name SHREVEPORT Frequency 119.9 MHZ
Type ATIS Name ATIS Frequency 37.58 MHZ
Type GND Name GND Frequency 121.8 MHZ
Type PMSV Name PMSV METRO Frequency 37.362 MHZ
Type POST Name COMD POST Frequency 31.1 MHZ
Type PTD Name PTD Frequency 37.22 MHZ
Type TWR Name TWR Frequency 128.25 MHZ

 AIRPORT NEAR NAVIGATION AIDS
Type TACAN Name Barksdale Frequency 115800 KHZ
Type VORTAC Name Belcher Frequency 117400 KHZ
Type VORTAC Name Elm Grove Frequency 111200 KHZ


... ... ... ... ... ...

© Copyright 2017 All Rights Reserved. Virtual NATO is in no way affiliated with NATO or any of the NATO Members

NATO Virtual is a volunteer not for profit group of friends with the common interest in promoting enjoyment and education through the simulation of military operations and procedure through the use of operating standards within several flight simulation platforms.

Powered by Virtual Airlines Manager [v2.6.2] Customized by Virtual NATO